Time,TemperatureF,DewpointF,PressureIn,WindDirection,WindDirectionDegrees,WindSpeedMPH,WindSpeedGustMPH,Humidity,HourlyPrecipIn,Conditions,Clouds,dailyrainin,SoftwareType,DateUTC
2013-04-22 00:10:00,42.4,32.0,30.62,East,95,0.0,4.0,66,0.00,,,0.00,weatherlink.com 1.10,2013-04-22 04:10:00,
2013-04-22 00:25:00,42.2,31.0,30.63,ESE,120,0.0,3.0,65,0.00,,,0.00,weatherlink.com 1.10,2013-04-22 04:25:00,
2013-04-22 00:40:00,41.9,31.0,30.63,ESE,113,0.0,3.0,65,0.00,,,0.00,weatherlink.com 1.10,2013-04-22 04:40:00,
2013-04-22 00:55:00,41.5,31.0,30.63,SE,132,0.0,2.0,67,0.00,,,0.00,weatherlink.com 1.10,2013-04-22 04:55:00,
2013-04-22 01:10:00,41.3,31.0,30.63,ESE,117,0.0,2.0,68,0.00,,,0.00,weatherlink.com 1.10,2013-04-22 05:10:00,
2013-04-22 01:25:00,41.0,31.0,30.63,ESE,115,0.0,2.0,68,0.00,,,0.00,weatherlink.com 1.10,2013-04-22 05:25:00,
2013-04-22 01:40:00,41.1,31.0,30.62,East,97,0.0,3.0,68,0.00,,,0.00,weatherlink.com 1.10,2013-04-22 05:40:00,
2013-04-22 01:55:00,40.9,31.0,30.62,ESE,105,0.0,4.0,68,0.00,,,0.00,weatherlink.com 1.10,2013-04-22 05:55:00,
2013-04-22 02:10:00,40.7,32.0,30.62,ESE,110,0.0,1.0,70,0.00,,,0.00,weatherlink.com 1.10,2013-04-22 06:10:00,
2013-04-22 02:25:00,40.6,32.0,30.62,SE,128,1.0,3.0,70,0.00,,,0.00,weatherlink.com 1.10,2013-04-22 06:25:00,
2013-04-22 02:40:00,40.4,32.0,30.62,ESE,120,0.0,2.0,71,0.00,,,0.00,weatherlink.com 1.10,2013-04-22 06:40:00,
2013-04-22 02:55:00,39.5,31.0,30.62,ESE,120,0.0,0.0,72,0.00,,,0.00,weatherlink.com 1.10,2013-04-22 06:55:00,
2013-04-22 03:10:00,38.7,31.0,30.61,ESE,120,0.0,0.0,75,0.00,,,0.00,weatherlink.com 1.10,2013-04-22 07:10:00,
2013-04-22 03:25:00,37.7,31.0,30.61,ESE,120,0.0,0.0,78,0.00,,,0.00,weatherlink.com 1.10,2013-04-22 07:25:00,
2013-04-22 03:40:00,37.4,31.0,30.62,ESE,120,0.0,1.0,79,0.00,,,0.00,weatherlink.com 1.10,2013-04-22 07:40:00,
2013-04-22 03:55:00,37.1,31.0,30.61,ESE,120,0.0,0.0,80,0.00,,,0.00,weatherlink.com 1.10,2013-04-22 07:55:00,
2013-04-22 04:10:00,37.0,32.0,30.62,ESE,120,0.0,0.0,81,0.00,,,0.00,weatherlink.com 1.10,2013-04-22 08:10:00,
2013-04-22 04:26:00,36.8,32.0,30.62,NW,313,0.0,1.0,82,0.00,,,0.00,weatherlink.com 1.10,2013-04-22 08:26:00,
2013-04-22 04:41:00,37.2,32.0,30.62,ENE,57,0.0,1.0,82,0.00,,,0.00,weatherlink.com 1.10,2013-04-22 08:41:00,
2013-04-22 04:56:00,37.2,32.0,30.62,North,6,0.0,1.0,82,0.00,,,0.00,weatherlink.com 1.10,2013-04-22 08:56:00,
2013-04-22 05:11:00,37.2,32.0,30.62,East,88,0.0,1.0,82,0.00,,,0.00,weatherlink.com 1.10,2013-04-22 09:11:00,
2013-04-22 05:26:00,36.9,32.0,30.63,East,89,0.0,0.0,83,0.00,,,0.00,weatherlink.com 1.10,2013-04-22 09:26:00,
2013-04-22 05:41:00,36.3,32.0,30.63,East,82,0.0,1.0,83,0.00,,,0.00,weatherlink.com 1.10,2013-04-22 09:41:00,
2013-04-22 05:56:00,36.2,32.0,30.63,NNE,33,0.0,0.0,84,0.00,,,0.00,weatherlink.com 1.10,2013-04-22 09:56:00,
2013-04-22 06:11:00,35.9,32.0,30.63,NNW,343,0.0,0.0,84,0.00,,,0.00,weatherlink.com 1.10,2013-04-22 10:11:00,
2013-04-22 06:26:00,36.5,32.0,30.63,ENE,70,0.0,2.0,84,0.00,,,0.00,weatherlink.com 1.10,2013-04-22 10:26:00,
2013-04-22 06:41:00,37.9,33.0,30.63,ESE,108,0.0,1.0,83,0.00,,,0.00,weatherlink.com 1.10,2013-04-22 10:41:00,
2013-04-22 06:56:00,40.8,34.0,30.63,WNW,284,2.0,4.0,78,0.00,,,0.00,weatherlink.com 1.10,2013-04-22 10:56:00,
2013-04-22 07:11:00,42.7,35.0,30.63,ESE,111,1.0,5.0,73,0.00,,,0.00,weatherlink.com 1.10,2013-04-22 11:11:00,
2013-04-22 07:26:00,43.8,35.0,30.63,ESE,122,1.0,8.0,71,0.00,,,0.00,weatherlink.com 1.10,2013-04-22 11:26:00,
2013-04-22 07:41:00,44.7,35.0,30.63,ENE,73,1.0,8.0,68,0.00,,,0.00,weatherlink.com 1.10,2013-04-22 11:41:00,
2013-04-22 07:56:00,45.1,34.0,30.63,SE,125,7.0,12.0,65,0.00,,,0.00,weatherlink.com 1.10,2013-04-22 11:56:00,
2013-04-22 08:11:00,45.5,33.0,30.62,SE,126,12.0,13.0,63,0.00,,,0.00,weatherlink.com 1.10,2013-04-22 12:11:00,
2013-04-22 08:26:00,46.3,34.0,30.63,ENE,73,1.0,10.0,63,0.00,,,0.00,weatherlink.com 1.10,2013-04-22 12:26:00,
2013-04-22 08:41:00,47.0,34.0,30.64,East,98,5.0,14.0,60,0.00,,,0.00,weatherlink.com 1.10,2013-04-22 12:41:00,
2013-04-22 08:56:00,47.3,33.0,30.65,ESE,117,10.0,18.0,58,0.00,,,0.00,weatherlink.com 1.10,2013-04-22 12:56:00,
2013-04-22 09:11:00,47.0,32.0,30.65,SE,124,8.0,13.0,57,0.00,,,0.00,weatherlink.com 1.10,2013-04-22 13:11:00,
2013-04-22 09:26:00,47.9,32.0,30.64,ESE,110,14.0,18.0,55,0.00,,,0.00,weatherlink.com 1.10,2013-04-22 13:26:00,
2013-04-22 09:41:00,48.7,32.0,30.64,ESE,117,8.0,16.0,53,0.00,,,0.00,weatherlink.com 1.10,2013-04-22 13:41:00,
2013-04-22 09:56:00,49.7,33.0,30.64,ESE,111,9.0,14.0,53,0.00,,,0.00,weatherlink.com 1.10,2013-04-22 13:56:00,
2013-04-22 10:11:00,50.0,31.0,30.64,SE,126,6.0,14.0,49,0.00,,,0.00,weatherlink.com 1.10,2013-04-22 14:11:00,
2013-04-22 10:26:00,50.2,32.0,30.64,East,91,6.0,14.0,49,0.00,,,0.00,weatherlink.com 1.10,2013-04-22 14:26:00,
2013-04-22 10:41:00,51.3,31.0,30.63,ESE,105,3.0,11.0,46,0.00,,,0.00,weatherlink.com 1.10,2013-04-22 14:41:00,
2013-04-22 10:56:00,51.2,31.0,30.63,ENE,76,8.0,13.0,46,0.00,,,0.00,weatherlink.com 1.10,2013-04-22 14:56:00,
2013-04-22 11:11:00,51.8,31.0,30.63,SE,132,7.0,12.0,46,0.00,,,0.00,weatherlink.com 1.10,2013-04-22 15:11:00,
2013-04-22 11:26:00,52.0,34.0,30.63,SSE,165,8.0,19.0,50,0.00,,,0.00,weatherlink.com 1.10,2013-04-22 15:26:00,
2013-04-22 11:41:00,52.1,34.0,30.63,SE,129,6.0,13.0,50,0.00,,,0.00,weatherlink.com 1.10,2013-04-22 15:41:00,
2013-04-22 11:57:00,52.4,34.0,30.63,NE,53,5.0,12.0,49,0.00,,,0.00,weatherlink.com 1.10,2013-04-22 15:57:00,
2013-04-22 12:11:00,51.8,34.0,30.61,NW,304,5.0,14.0,52,0.00,,,0.00,weatherlink.com 1.10,2013-04-22 16:11:00,
2013-04-22 12:26:00,51.7,34.0,30.60,ESE,105,6.0,21.0,52,0.00,,,0.00,weatherlink.com 1.10,2013-04-22 16:26:00,
2013-04-22 12:41:00,51.4,34.0,30.62,SW,226,3.0,14.0,52,0.00,,,0.00,weatherlink.com 1.10,2013-04-22 16:41:00,
2013-04-22 12:56:00,52.3,34.0,30.59,ESE,102,3.0,12.0,51,0.00,,,0.00,weatherlink.com 1.10,2013-04-22 16:56:00,
2013-04-22 13:11:00,51.7,34.0,30.60,West,269,2.0,16.0,52,0.00,,,0.00,weatherlink.com 1.10,2013-04-22 17:11:00,
2013-04-22 13:26:00,52.7,35.0,30.59,SE,143,6.0,13.0,52,0.00,,,0.00,weatherlink.com 1.10,2013-04-22 17:26:00,
2013-04-22 13:41:00,53.2,34.0,30.58,ESE,106,4.0,14.0,49,0.00,,,0.00,weatherlink.com 1.10,2013-04-22 17:41:00,
2013-04-22 13:56:00,53.3,35.0,30.58,East,88,8.0,13.0,50,0.00,,,0.00,weatherlink.com 1.10,2013-04-22 17:56:00,
2013-04-22 14:11:00,52.8,33.0,30.57,East,96,4.0,14.0,48,0.00,,,0.00,weatherlink.com 1.10,2013-04-22 18:11:00,
2013-04-22 14:26:00,53.4,33.0,30.57,East,98,9.0,11.0,47,0.00,,,0.00,weatherlink.com 1.10,2013-04-22 18:26:00,
2013-04-22 14:41:00,53.7,33.0,30.57,ESE,120,4.0,15.0,45,0.00,,,0.00,weatherlink.com 1.10,2013-04-22 18:41:00,
2013-04-22 14:56:00,54.0,33.0,30.56,ESE,116,3.0,13.0,46,0.00,,,0.00,weatherlink.com 1.10,2013-04-22 18:56:00,
2013-04-22 15:11:00,53.1,32.0,30.56,SE,131,14.0,16.0,45,0.00,,,0.00,weatherlink.com 1.10,2013-04-22 19:11:00,
2013-04-22 15:27:00,53.9,32.0,30.55,West,259,6.0,15.0,43,0.00,,,0.00,weatherlink.com 1.10,2013-04-22 19:27:00,
2013-04-22 15:42:00,53.4,32.0,30.55,ESE,107,6.0,14.0,44,0.00,,,0.00,weatherlink.com 1.10,2013-04-22 19:42:00,
2013-04-22 15:57:00,53.8,31.0,30.54,ENE,65,3.0,12.0,42,0.00,,,0.00,weatherlink.com 1.10,2013-04-22 19:57:00,
2013-04-22 16:12:00,53.7,30.0,30.54,SE,132,6.0,11.0,40,0.00,,,0.00,weatherlink.com 1.10,2013-04-22 20:12:00,
2013-04-22 16:27:00,53.3,29.0,30.54,SE,132,3.0,16.0,40,0.00,,,0.00,weatherlink.com 1.10,2013-04-22 20:27:00,
2013-04-22 16:42:00,53.5,29.0,30.53,ENE,68,3.0,13.0,39,0.00,,,0.00,weatherlink.com 1.10,2013-04-22 20:42:00,
2013-04-22 16:57:00,53.6,29.0,30.53,ENE,64,8.0,13.0,39,0.00,,,0.00,weatherlink.com 1.10,2013-04-22 20:57:00,
2013-04-22 17:12:00,52.6,29.0,30.53,ESE,115,10.0,16.0,41,0.00,,,0.00,weatherlink.com 1.10,2013-04-22 21:12:00,
2013-04-22 17:27:00,51.9,28.0,30.52,East,80,3.0,19.0,40,0.00,,,0.00,weatherlink.com 1.10,2013-04-22 21:27:00,
2013-04-22 17:42:00,51.9,30.0,30.52,East,90,5.0,14.0,44,0.00,,,0.00,weatherlink.com 1.10,2013-04-22 21:42:00,
2013-04-22 17:57:00,51.9,32.0,30.52,West,281,5.0,12.0,46,0.00,,,0.00,weatherlink.com 1.10,2013-04-22 21:57:00,
2013-04-22 18:12:00,51.2,31.0,30.52,ESE,121,10.0,13.0,47,0.00,,,0.00,weatherlink.com 1.10,2013-04-22 22:12:00,
2013-04-22 18:27:00,50.7,32.0,30.52,ESE,110,10.0,14.0,49,0.00,,,0.00,weatherlink.com 1.10,2013-04-22 22:27:00,
2013-04-22 18:42:00,50.3,31.0,30.51,SE,127,9.0,13.0,48,0.00,,,0.00,weatherlink.com 1.10,2013-04-22 22:42:00,
2013-04-22 18:57:00,49.3,31.0,30.51,ESE,105,8.0,14.0,49,0.00,,,0.00,weatherlink.com 1.10,2013-04-22 22:57:00,
2013-04-22 19:12:00,48.9,31.0,30.51,ESE,122,4.0,12.0,51,0.00,,,0.00,weatherlink.com 1.10,2013-04-22 23:12:00,
2013-04-22 19:27:00,48.8,32.0,30.51,East,96,4.0,10.0,52,0.00,,,0.00,weatherlink.com 1.10,2013-04-22 23:27:00,
2013-04-22 19:42:00,48.5,34.0,30.51,SE,142,2.0,9.0,57,0.00,,,0.00,weatherlink.com 1.10,2013-04-22 23:42:00,
2013-04-22 19:57:00,48.0,34.0,30.51,SSE,148,6.0,11.0,58,0.00,,,0.00,weatherlink.com 1.10,2013-04-22 23:57:00,
2013-04-22 20:12:00,47.6,33.0,30.51,SE,124,4.0,11.0,58,0.00,,,0.00,weatherlink.com 1.10,2013-04-23 00:12:00,
2013-04-22 20:27:00,47.4,34.0,30.51,SE,131,2.0,10.0,59,0.00,,,0.00,weatherlink.com 1.10,2013-04-23 00:27:00,
2013-04-22 20:42:00,47.0,34.0,30.51,ESE,122,4.0,17.0,60,0.00,,,0.00,weatherlink.com 1.10,2013-04-23 00:42:00,
2013-04-22 20:57:00,46.6,33.0,30.51,SE,133,3.0,16.0,59,0.00,,,0.00,weatherlink.com 1.10,2013-04-23 00:57:00,
2013-04-22 21:12:00,46.1,34.0,30.51,SSE,148,2.0,12.0,62,0.00,,,0.00,weatherlink.com 1.10,2013-04-23 01:12:00,
2013-04-22 21:27:00,45.7,34.0,30.51,ESE,117,1.0,11.0,65,0.00,,,0.00,weatherlink.com 1.10,2013-04-23 01:27:00,
2013-04-22 21:42:00,45.6,34.0,30.51,NE,37,2.0,8.0,64,0.00,,,0.00,weatherlink.com 1.10,2013-04-23 01:42:00,
2013-04-22 21:57:00,45.5,34.0,30.51,East,84,5.0,9.0,64,0.00,,,0.00,weatherlink.com 1.10,2013-04-23 01:57:00,
2013-04-22 22:12:00,45.4,32.0,30.51,ESE,107,5.0,12.0,61,0.00,,,0.00,weatherlink.com 1.10,2013-04-23 02:12:00,
2013-04-22 22:28:00,45.2,32.0,30.50,ENE,57,2.0,14.0,60,0.00,,,0.00,weatherlink.com 1.10,2013-04-23 02:28:00,
2013-04-22 22:43:00,45.0,32.0,30.51,South,177,7.0,10.0,61,0.00,,,0.00,weatherlink.com 1.10,2013-04-23 02:43:00,
2013-04-22 22:58:00,44.7,32.0,30.50,ESE,119,3.0,12.0,62,0.00,,,0.00,weatherlink.com 1.10,2013-04-23 02:58:00,
2013-04-22 23:13:00,44.4,33.0,30.50,SE,130,1.0,13.0,64,0.00,,,0.00,weatherlink.com 1.10,2013-04-23 03:13:00,
2013-04-22 23:28:00,44.1,33.0,30.49,ESE,104,4.0,16.0,65,0.00,,,0.00,weatherlink.com 1.10,2013-04-23 03:28:00,
2013-04-22 23:43:00,43.7,33.0,30.48,ENE,75,5.0,10.0,65,0.00,,,0.00,weatherlink.com 1.10,2013-04-23 03:43:00,
2013-04-22 23:58:00,43.4,33.0,30.48,East,94,10.0,10.0,66,0.00,,,0.00,weatherlink.com 1.10,2013-04-23 03:58:00,